Time;durP1;ratioP1;P1;durP2;ratioP2;P2;SDS_P1;SDS_P2;PMS_P1;PMS_P2;Temp;Humidity;BMP_temperature;BMP_pressure;BME280_temperature;BME280_humidity;BME280_pressure;Samples;Min_cycle;Max_cycle;Signal;HPM_P1;HPM_P2
2023/12/21 00:02:15;;;;;;;2.00;0.90;;;22.90;59.50;;;;;;5069958;28;20446;-87
2023/12/21 00:04:42;;;;;;;1.20;1.00;;;22.80;59.50;;;;;;5063714;28;20432;-92
2023/12/21 00:07:08;;;;;;;1.20;0.80;;;22.80;59.50;;;;;;5064916;28;20449;-86
2023/12/21 00:09:35;;;;;;;2.90;1.23;;;22.80;59.50;;;;;;5053611;28;20449;-86
2023/12/21 00:12:04;;;;;;;1.20;0.80;;;22.70;59.50;;;;;;5053443;28;20539;-91
2023/12/21 00:14:31;;;;;;;1.63;0.90;;;22.70;59.50;;;;;;5053541;28;20859;-86
2023/12/21 00:16:58;;;;;;;1.77;0.90;;;22.70;59.70;;;;;;5053564;28;20544;-86
2023/12/21 00:19:25;;;;;;;1.17;0.90;;;22.70;59.50;;;;;;5053548;28;20441;-87
2023/12/21 00:21:51;;;;;;;1.63;0.87;;;22.70;59.50;;;;;;5053166;28;20433;-87
2023/12/21 00:24:18;;;;;;;1.20;1.00;;;22.70;59.50;;;;;;5053402;28;20445;-87
2023/12/21 00:26:45;;;;;;;1.10;0.90;;;22.70;59.50;;;;;;5053382;28;20485;-86
2023/12/21 00:29:14;;;;;;;1.10;0.90;;;22.70;59.60;;;;;;5073401;28;20531;-87
2023/12/21 00:31:40;;;;;;;1.20;1.00;;;22.60;59.50;;;;;;5073214;28;20432;-86
2023/12/21 00:34:07;;;;;;;1.10;0.80;;;22.60;59.50;;;;;;5073368;28;20436;-91
2023/12/21 00:36:34;;;;;;;1.00;0.70;;;22.60;59.60;;;;;;5057846;28;20448;-87
2023/12/21 00:39:01;;;;;;;1.50;1.10;;;22.60;59.60;;;;;;5053064;28;20921;-86
2023/12/21 00:41:28;;;;;;;1.23;0.90;;;22.60;59.60;;;;;;5070862;28;20794;-91
2023/12/21 00:43:55;;;;;;;1.73;0.90;;;22.60;59.60;;;;;;5073098;28;20433;-91
2023/12/21 00:46:23;;;;;;;1.10;0.80;;;22.60;59.60;;;;;;5061935;28;20499;-86
2023/12/21 00:48:50;;;;;;;3.40;0.97;;;22.60;59.60;;;;;;5053023;28;20437;-90
2023/12/21 00:51:16;;;;;;;1.47;0.97;;;22.60;59.60;;;;;;5052929;28;20464;-92
2023/12/21 00:53:43;;;;;;;1.30;0.90;;;22.60;59.60;;;;;;5053038;28;20548;-86
2023/12/21 00:56:10;;;;;;;1.53;1.00;;;22.50;59.60;;;;;;5052695;28;20475;-92
2023/12/21 00:58:37;;;;;;;1.30;0.90;;;22.50;59.60;;;;;;5052906;28;20441;-92
2023/12/21 01:01:03;;;;;;;2.40;1.00;;;22.50;59.60;;;;;;5057578;28;20443;-86
2023/12/21 01:03:32;;;;;;;1.00;0.90;;;22.50;59.70;;;;;;5057468;28;20933;-91
2023/12/21 01:05:59;;;;;;;1.20;0.90;;;22.50;59.70;;;;;;5052736;28;20489;-91
2023/12/21 01:08:26;;;;;;;1.20;0.90;;;22.50;59.70;;;;;;5052761;28;20448;-91
2023/12/21 01:10:52;;;;;;;1.00;0.80;;;22.50;59.70;;;;;;5052695;28;20806;-91
2023/12/21 01:13:19;;;;;;;1.10;0.90;;;22.50;59.70;;;;;;5052856;28;20722;-86
2023/12/21 01:15:46;;;;;;;1.00;0.83;;;22.50;59.70;;;;;;5052721;28;20465;-85
2023/12/21 01:18:13;;;;;;;1.33;0.97;;;22.50;59.80;;;;;;5052769;28;20434;-86
2023/12/21 01:20:41;;;;;;;1.17;0.90;;;22.50;59.80;;;;;;5052703;28;20437;-86
2023/12/21 01:23:07;;;;;;;1.10;0.80;;;22.50;59.70;;;;;;5052718;28;21005;-90
2023/12/21 01:25:34;;;;;;;1.00;0.80;;;22.50;59.70;;;;;;5052639;28;20480;-86
2023/12/21 01:28:01;;;;;;;1.30;0.93;;;22.40;59.70;;;;;;5052814;28;20516;-92
2023/12/21 01:30:28;;;;;;;1.60;1.03;;;22.40;59.70;;;;;;5052644;28;20438;-91
2023/12/21 01:32:55;;;;;;;2.13;0.87;;;22.50;59.90;;;;;;5052927;28;20433;-91
2023/12/21 01:35:21;;;;;;;1.20;0.90;;;22.40;59.80;;;;;;5052703;28;20437;-91
2023/12/21 01:37:49;;;;;;;1.00;0.80;;;22.40;59.80;;;;;;5052539;28;20774;-88
2023/12/21 01:40:16;;;;;;;1.83;0.70;;;22.50;59.90;;;;;;5052835;28;20444;-92
2023/12/21 01:42:43;;;;;;;1.60;0.90;;;22.50;59.90;;;;;;5052455;28;20437;-92
2023/12/21 01:45:10;;;;;;;1.00;0.73;;;22.50;59.80;;;;;;5052440;28;20443;-91
2023/12/21 01:47:37;;;;;;;0.97;0.67;;;22.50;59.80;;;;;;5052390;28;20460;-85
2023/12/21 01:50:05;;;;;;;1.27;0.70;;;22.50;59.80;;;;;;5052410;28;20452;-86
2023/12/21 01:52:33;;;;;;;1.10;0.83;;;22.50;59.80;;;;;;5052351;28;20437;-85
2023/12/21 01:55:02;;;;;;;1.33;1.00;;;22.50;59.80;;;;;;5052428;28;20441;-85
2023/12/21 01:57:29;;;;;;;1.10;0.70;;;22.50;59.80;;;;;;5032330;28;20835;-85
2023/12/21 01:59:56;;;;;;;1.00;0.80;;;22.50;59.80;;;;;;5033546;28;20440;-85
2023/12/21 02:02:22;;;;;;;1.00;0.80;;;22.50;59.70;;;;;;5035808;28;20529;-86
2023/12/21 02:04:49;;;;;;;1.00;0.77;;;22.50;59.80;;;;;;5035965;28;20442;-85
2023/12/21 02:07:17;;;;;;;2.03;0.70;;;22.50;59.70;;;;;;5035842;28;20492;-85
2023/12/21 02:09:44;;;;;;;1.17;0.80;;;22.50;59.70;;;;;;5036110;28;20437;-85
2023/12/21 02:12:12;;;;;;;1.73;0.80;;;22.50;59.70;;;;;;5035709;28;20947;-85
2023/12/21 02:14:39;;;;;;;1.10;0.90;;;22.50;59.70;;;;;;5035817;28;20517;-85
2023/12/21 02:17:09;;;;;;;1.10;0.90;;;22.50;59.70;;;;;;5035698;28;20463;-85
2023/12/21 02:19:37;;;;;;;2.33;0.80;;;22.50;59.70;;;;;;5035685;28;20442;-85
2023/12/21 02:22:05;;;;;;;1.10;0.80;;;22.50;59.70;;;;;;5035733;28;20792;-85
2023/12/21 02:24:33;;;;;;;1.00;0.80;;;22.50;59.80;;;;;;5035616;28;20438;-85
2023/12/21 02:27:00;;;;;;;0.90;0.60;;;22.50;59.70;;;;;;5035576;28;21015;-86
2023/12/21 02:29:27;;;;;;;1.10;0.83;;;22.50;59.70;;;;;;5035532;28;20782;-85
2023/12/21 02:31:54;;;;;;;1.00;0.80;;;22.50;59.70;;;;;;5035379;28;20931;-86
2023/12/21 02:34:21;;;;;;;1.00;0.80;;;22.50;60.40;;;;;;5035515;28;20438;-85
2023/12/21 02:36:47;;;;;;;1.10;0.80;;;22.50;59.70;;;;;;5035333;28;20430;-85
2023/12/21 02:39:14;;;;;;;1.70;0.83;;;22.50;59.70;;;;;;5035249;28;20445;-86
2023/12/21 02:41:42;;;;;;;2.30;0.90;;;22.50;59.70;;;;;;5035218;28;20449;-85
2023/12/21 02:44:09;;;;;;;2.10;0.80;;;22.60;59.80;;;;;;5035131;28;20449;-85
2023/12/21 02:46:36;;;;;;;1.10;0.80;;;22.50;59.70;;;;;;5035048;28;20496;-86
2023/12/21 02:49:03;;;;;;;1.07;0.83;;;22.50;59.70;;;;;;5035091;28;20435;-85
2023/12/21 02:51:29;;;;;;;1.00;0.70;;;22.50;59.70;;;;;;5034908;28;20541;-85
2023/12/21 02:53:56;;;;;;;1.00;0.70;;;22.60;59.70;;;;;;5035030;28;20434;-85
2023/12/21 02:56:23;;;;;;;1.10;0.80;;;22.60;59.70;;;;;;5034786;28;20470;-86
2023/12/21 02:58:51;;;;;;;1.17;0.77;;;22.50;59.70;;;;;;5034818;28;20438;-85
2023/12/21 03:01:18;;;;;;;1.23;0.87;;;22.50;59.70;;;;;;5034965;28;20441;-86
2023/12/21 03:03:44;;;;;;;1.10;0.80;;;22.50;59.70;;;;;;5035026;28;20537;-85
2023/12/21 03:06:11;;;;;;;1.30;0.80;;;22.60;59.80;;;;;;5034724;28;20481;-85
2023/12/21 03:08:40;;;;;;;1.27;0.90;;;22.50;59.70;;;;;;5034746;28;20435;-85
2023/12/21 03:11:07;;;;;;;1.20;0.83;;;22.70;59.80;;;;;;5033423;28;20434;-85
2023/12/21 03:13:34;;;;;;;0.93;0.70;;;22.50;59.70;;;;;;5034673;28;20979;-85
2023/12/21 03:16:06;;;;;;;1.10;0.80;;;22.50;59.70;;;;;;5034640;28;20466;-85
2023/12/21 03:18:33;;;;;;;1.00;0.70;;;22.60;59.70;;;;;;5034556;28;20438;-85
2023/12/21 03:20:59;;;;;;;0.90;0.60;;;22.70;59.80;;;;;;5034464;28;20438;-85
2023/12/21 03:23:26;;;;;;;1.00;0.80;;;22.60;59.70;;;;;;5034545;28;20440;-85
2023/12/21 03:25:53;;;;;;;1.27;0.80;;;22.60;59.70;;;;;;5034441;28;20430;-85
2023/12/21 03:28:20;;;;;;;1.37;0.70;;;22.50;59.70;;;;;;5034436;28;20438;-85
2023/12/21 03:30:47;;;;;;;0.90;0.67;;;22.60;59.70;;;;;;5034368;28;20469;-86
2023/12/21 03:33:15;;;;;;;1.10;0.80;;;22.60;59.70;;;;;;5034272;28;20438;-85
2023/12/21 03:35:42;;;;;;;1.10;0.70;;;22.60;59.70;;;;;;5034277;28;20438;-85
2023/12/21 03:38:09;;;;;;;1.23;1.03;;;22.60;59.70;;;;;;5034165;28;20838;-87
2023/12/21 03:40:36;;;;;;;1.10;0.80;;;22.60;59.70;;;;;;5034173;28;20438;-85
2023/12/21 03:43:02;;;;;;;1.00;0.70;;;22.60;59.70;;;;;;5033915;28;20918;-85
2023/12/21 03:45:30;;;;;;;1.10;0.80;;;22.60;59.70;;;;;;5033922;28;20825;-85
2023/12/21 03:47:56;;;;;;;1.00;0.70;;;22.60;59.70;;;;;;5033957;28;20494;-86
2023/12/21 03:50:24;;;;;;;1.17;0.83;;;22.60;59.70;;;;;;5033931;28;20438;-85
2023/12/21 03:52:51;;;;;;;1.03;0.77;;;22.60;59.70;;;;;;5033756;28;20430;-86
2023/12/21 03:55:18;;;;;;;1.10;0.70;;;22.60;59.70;;;;;;5033813;28;20445;-85
2023/12/21 03:57:45;;;;;;;1.00;0.80;;;22.60;59.70;;;;;;5033822;28;20454;-85
2023/12/21 04:00:13;;;;;;;1.00;0.70;;;22.60;59.70;;;;;;5033703;28;20449;-85
2023/12/21 04:02:39;;;;;;;1.00;0.70;;;22.60;59.70;;;;;;5033847;28;20446;-85
2023/12/21 04:05:07;;;;;;;1.40;0.80;;;22.60;59.70;;;;;;5033627;28;20438;-86
2023/12/21 04:07:35;;;;;;;1.00;0.70;;;22.60;59.70;;;;;;5033587;28;20492;-85
2023/12/21 04:10:02;;;;;;;1.00;0.70;;;22.60;59.70;;;;;;5033618;28;20461;-85
2023/12/21 04:12:29;;;;;;;1.10;0.80;;;22.60;59.60;;;;;;5033485;28;20442;-85
2023/12/21 04:14:55;;;;;;;0.93;0.63;;;22.50;59.60;;;;;;5033582;28;20441;-85
2023/12/21 04:17:22;;;;;;;1.27;0.70;;;22.50;59.60;;;;;;5033350;28;20458;-85
2023/12/21 04:19:49;;;;;;;1.00;0.70;;;22.60;59.70;;;;;;5033466;28;20442;-85
2023/12/21 04:22:16;;;;;;;0.97;0.70;;;22.50;59.60;;;;;;5032994;28;20449;-85
2023/12/21 04:24:44;;;;;;;1.00;0.70;;;22.50;59.60;;;;;;5033325;28;20445;-85
2023/12/21 04:27:12;;;;;;;1.00;0.73;;;22.50;59.70;;;;;;5033354;28;20486;-85
2023/12/21 04:29:39;;;;;;;0.90;0.70;;;22.50;59.70;;;;;;5033463;28;20446;-85
2023/12/21 04:32:06;;;;;;;1.07;0.80;;;22.50;59.70;;;;;;5033161;28;20530;-86
2023/12/21 04:34:33;;;;;;;0.93;0.63;;;22.50;59.70;;;;;;5033360;28;20446;-90
2023/12/21 04:37:00;;;;;;;0.90;0.67;;;22.50;59.70;;;;;;5033089;28;20438;-85
2023/12/21 04:39:27;;;;;;;1.00;0.70;;;22.50;59.70;;;;;;5033158;28;20438;-85
2023/12/21 04:41:55;;;;;;;1.00;0.70;;;22.50;59.70;;;;;;5033126;28;20783;-85
2023/12/21 04:44:22;;;;;;;1.00;0.83;;;22.60;59.80;;;;;;5033111;28;20430;-85
2023/12/21 04:46:49;;;;;;;1.10;0.70;;;22.50;59.70;;;;;;5032906;28;20478;-85
2023/12/21 04:49:16;;;;;;;0.97;0.70;;;22.60;59.80;;;;;;5033086;28;20785;-85
2023/12/21 04:51:45;;;;;;;1.00;0.70;;;22.50;59.70;;;;;;5032939;28;20546;-85
2023/12/21 04:54:12;;;;;;;1.00;0.70;;;22.50;59.70;;;;;;5033070;28;20445;-85
2023/12/21 04:56:40;;;;;;;1.30;0.93;;;22.50;59.70;;;;;;5032675;28;20838;-85
2023/12/21 04:59:09;;;;;;;1.00;0.70;;;22.50;59.70;;;;;;5032910;28;20438;-85
2023/12/21 05:01:36;;;;;;;1.20;0.80;;;22.50;59.70;;;;;;5032924;28;21008;-88
2023/12/21 05:04:04;;;;;;;1.00;0.77;;;22.50;59.70;;;;;;5032881;28;20444;-85
2023/12/21 05:06:30;;;;;;;0.90;0.60;;;22.50;60.30;;;;;;5032753;28;20434;-85
2023/12/21 05:08:59;;;;;;;1.00;0.80;;;22.50;59.60;;;;;;5032992;28;20438;-85
2023/12/21 05:11:26;;;;;;;0.90;0.70;;;22.50;59.60;;;;;;5032806;28;20537;-85
2023/12/21 05:13:52;;;;;;;1.20;0.90;;;22.50;59.70;;;;;;5032852;28;20438;-85
2023/12/21 05:16:21;;;;;;;1.10;0.80;;;22.50;59.60;;;;;;5032715;28;20549;-85
2023/12/21 05:18:49;;;;;;;0.97;0.60;;;22.50;59.70;;;;;;5032790;28;20434;-85
2023/12/21 05:21:16;;;;;;;1.10;0.70;;;22.50;59.70;;;;;;5032790;28;20481;-85
2023/12/21 05:23:42;;;;;;;1.00;0.70;;;22.50;59.70;;;;;;5032707;28;20441;-85
2023/12/21 05:26:11;;;;;;;1.30;0.73;;;22.50;59.70;;;;;;5032703;28;20439;-85
2023/12/21 05:28:39;;;;;;;1.00;0.70;;;22.50;59.70;;;;;;5032648;28;20827;-85
2023/12/21 05:31:07;;;;;;;0.90;0.70;;;22.60;59.70;;;;;;5032336;28;20449;-85
2023/12/21 05:33:35;;;;;;;0.90;0.70;;;22.60;59.70;;;;;;5032678;28;20438;-85
2023/12/21 05:36:02;;;;;;;0.90;0.60;;;22.60;59.70;;;;;;5035622;28;20925;-85
2023/12/21 05:38:29;;;;;;;1.23;0.80;;;22.60;59.70;;;;;;5036625;28;20883;-86
2023/12/21 05:40:55;;;;;;;0.90;0.60;;;22.60;59.70;;;;;;5036462;28;20480;-85
2023/12/21 05:43:22;;;;;;;1.00;0.70;;;22.60;59.70;;;;;;5036106;28;20944;-85
2023/12/21 05:45:49;;;;;;;1.00;0.70;;;22.60;59.70;;;;;;5036171;28;20996;-89
2023/12/21 05:48:16;;;;;;;1.00;0.80;;;22.60;59.60;;;;;;5036170;28;20498;-85
2023/12/21 05:50:44;;;;;;;1.00;0.70;;;22.60;59.70;;;;;;5036260;28;20438;-86
2023/12/21 05:53:10;;;;;;;1.00;0.60;;;22.60;59.70;;;;;;5036200;28;20434;-85
2023/12/21 05:55:37;;;;;;;0.90;0.60;;;22.60;59.60;;;;;;5035900;28;20496;-85
2023/12/21 05:58:04;;;;;;;1.00;0.60;;;22.70;59.70;;;;;;5036096;28;20887;-85
2023/12/21 06:00:32;;;;;;;1.00;0.70;;;22.60;59.60;;;;;;5036405;28;20530;-92
2023/12/21 06:02:59;;;;;;;1.00;0.70;;;22.60;59.60;;;;;;5036248;28;20809;-92
2023/12/21 06:05:26;;;;;;;1.00;0.70;;;22.60;59.60;;;;;;5036096;28;20442;-91
2023/12/21 06:07:54;;;;;;;1.00;0.70;;;22.70;59.60;;;;;;5045202;28;20485;-85
2023/12/21 06:10:21;;;;;;;1.00;0.70;;;22.70;59.60;;;;;;5055864;28;20516;-89
2023/12/21 06:12:47;;;;;;;0.90;0.60;;;22.70;59.60;;;;;;5056020;28;20442;-91
2023/12/21 06:15:14;;;;;;;1.10;0.70;;;22.70;59.60;;;;;;5055950;28;20441;-86
2023/12/21 06:17:41;;;;;;;1.10;0.83;;;22.70;59.60;;;;;;5056201;28;20440;-85
2023/12/21 06:20:10;;;;;;;1.10;0.60;;;22.70;59.60;;;;;;5055875;28;20533;-86
2023/12/21 06:22:36;;;;;;;1.10;0.70;;;22.70;59.50;;;;;;5055805;28;20449;-85
2023/12/21 06:25:05;;;;;;;1.07;0.60;;;22.70;59.50;;;;;;5055675;28;20444;-85
2023/12/21 06:27:32;;;;;;;0.90;0.70;;;22.70;59.50;;;;;;5055679;28;20472;-85
2023/12/21 06:29:59;;;;;;;1.00;0.70;;;22.70;59.50;;;;;;5055659;28;20441;-85
2023/12/21 06:32:26;;;;;;;1.13;0.70;;;22.70;59.50;;;;;;5055517;28;20936;-86
2023/12/21 06:34:52;;;;;;;0.90;0.60;;;22.70;59.50;;;;;;5055412;28;20437;-85
2023/12/21 06:37:19;;;;;;;0.90;0.70;;;22.70;59.60;;;;;;5055748;28;20437;-86
2023/12/21 06:39:46;;;;;;;1.10;0.90;;;22.70;59.50;;;;;;5055437;28;20443;-85
2023/12/21 06:42:14;;;;;;;1.00;0.80;;;22.70;59.60;;;;;;5055286;28;20443;-86
2023/12/21 06:44:41;;;;;;;1.00;0.70;;;22.70;59.50;;;;;;5055761;28;20811;-86
2023/12/21 06:47:08;;;;;;;1.00;0.60;;;22.70;59.50;;;;;;5054973;28;20851;-86
2023/12/21 06:49:34;;;;;;;0.90;0.70;;;22.70;59.50;;;;;;5055627;28;20447;-85
2023/12/21 06:52:01;;;;;;;1.23;0.90;;;22.70;59.60;;;;;;5055200;28;20441;-86
2023/12/21 06:54:28;;;;;;;1.13;0.70;;;22.70;59.60;;;;;;5055193;28;20523;-86
2023/12/21 06:56:55;;;;;;;0.90;0.63;;;22.70;59.60;;;;;;5054674;28;20560;-85
2023/12/21 06:59:23;;;;;;;1.00;0.73;;;22.70;59.60;;;;;;5055078;28;20433;-86
2023/12/21 07:01:50;;;;;;;1.40;0.80;;;22.70;59.60;;;;;;5055021;28;20437;-86
2023/12/21 07:04:18;;;;;;;0.90;0.60;;;22.70;59.60;;;;;;5054987;28;20491;-86
2023/12/21 07:06:45;;;;;;;1.10;0.60;;;22.70;59.50;;;;;;5054884;28;20437;-86
2023/12/21 07:09:14;;;;;;;1.10;0.80;;;22.70;59.50;;;;;;5054792;28;20485;-85
2023/12/21 07:11:40;;;;;;;1.03;0.73;;;22.70;59.50;;;;;;5054285;28;20465;-86
2023/12/21 07:14:07;;;;;;;1.00;0.70;;;22.70;59.70;;;;;;5055008;28;20475;-86
2023/12/21 07:16:35;;;;;;;1.00;0.70;;;22.90;59.70;;;;;;5054490;28;20464;-86
2023/12/21 07:19:02;;;;;;;1.00;0.60;;;22.70;59.50;;;;;;5054887;28;20441;-85
2023/12/21 07:21:29;;;;;;;1.20;0.73;;;22.70;59.50;;;;;;5054660;28;20441;-86
2023/12/21 07:23:56;;;;;;;1.00;0.70;;;22.80;59.60;;;;;;5055090;28;20453;-86
2023/12/21 07:26:23;;;;;;;1.00;0.70;;;22.80;59.60;;;;;;5054995;28;20467;-86
2023/12/21 07:28:49;;;;;;;1.20;0.87;;;22.80;59.50;;;;;;5054653;28;20480;-85
2023/12/21 07:31:17;;;;;;;1.10;0.80;;;22.80;59.50;;;;;;5054712;28;20437;-86
2023/12/21 07:33:45;;;;;;;0.90;0.60;;;22.70;59.40;;;;;;5054788;28;20814;-91
2023/12/21 07:36:14;;;;;;;1.00;0.70;;;22.80;59.50;;;;;;5054452;28;20536;-86
2023/12/21 07:38:41;;;;;;;1.27;0.70;;;22.80;59.60;;;;;;5064888;28;20961;-86
2023/12/21 07:41:08;;;;;;;1.00;0.87;;;22.80;59.40;;;;;;5074436;28;20814;-86
2023/12/21 07:43:36;;;;;;;3.20;0.70;;;22.80;59.40;;;;;;5074085;28;20531;-86
2023/12/21 07:46:02;;;;;;;2.70;1.00;;;22.80;59.40;;;;;;5074501;28;20461;-86
2023/12/21 07:48:29;;;;;;;1.40;1.00;;;22.80;59.40;;;;;;5074125;28;20506;-86
2023/12/21 07:50:58;;;;;;;1.20;1.00;;;22.80;59.40;;;;;;5074234;28;20531;-86
2023/12/21 07:53:24;;;;;;;2.70;1.13;;;22.80;59.30;;;;;;5073839;28;20448;-86
2023/12/21 07:55:51;;;;;;;1.63;1.20;;;22.80;59.30;;;;;;5072929;28;20491;-92
2023/12/21 07:58:18;;;;;;;1.20;1.10;;;22.80;59.90;;;;;;5072589;28;20443;-89
2023/12/21 08:00:46;;;;;;;1.73;1.10;;;22.80;59.40;;;;;;5073208;28;20436;-86
2023/12/21 08:03:12;;;;;;;2.20;1.43;;;22.80;59.50;;;;;;5073105;28;20449;-86
2023/12/21 08:05:39;;;;;;;1.87;1.20;;;22.80;59.50;;;;;;5073537;28;20927;-86
2023/12/21 08:08:08;;;;;;;1.73;1.33;;;22.80;59.50;;;;;;5073847;28;20492;-86
2023/12/21 08:10:34;;;;;;;2.17;1.33;;;22.80;59.60;;;;;;5074604;28;20440;-86
2023/12/21 08:13:01;;;;;;;4.40;1.67;;;22.90;59.70;;;;;;5074071;28;20439;-86
2023/12/21 08:15:28;;;;;;;1.70;1.10;;;22.80;59.60;;;;;;5073922;28;20466;-86
2023/12/21 08:17:55;;;;;;;2.30;1.47;;;22.90;59.80;;;;;;5073754;28;20433;-86
2023/12/21 08:20:23;;;;;;;4.73;1.57;;;22.90;59.80;;;;;;5073554;28;20470;-93
2023/12/21 08:22:49;;;;;;;2.07;1.70;;;22.80;59.70;;;;;;5073726;28;20428;-82
2023/12/21 08:25:18;;;;;;;3.30;1.50;;;22.90;59.80;;;;;;5073618;28;20440;-82
2023/12/21 08:27:45;;;;;;;1.90;1.53;;;22.90;59.80;;;;;;5073333;28;20482;-82
2023/12/21 08:30:12;;;;;;;2.13;1.63;;;22.90;59.90;;;;;;5073348;28;20453;-81
2023/12/21 08:32:39;;;;;;;1.20;1.10;;;22.90;59.90;;;;;;5073559;28;20804;-82
2023/12/21 08:35:07;;;;;;;2.10;1.90;;;22.90;59.90;;;;;;5073369;28;20459;-82
2023/12/21 08:37:34;;;;;;;2.67;1.90;;;22.90;59.90;;;;;;5073275;28;20439;-82
2023/12/21 08:40:00;;;;;;;2.40;1.83;;;22.90;59.90;;;;;;5073397;28;20432;-83
2023/12/21 08:42:30;;;;;;;3.90;1.57;;;22.90;59.90;;;;;;5073098;28;20799;-82
2023/12/21 08:44:58;;;;;;;2.80;1.60;;;22.90;59.90;;;;;;5073469;28;20444;-86
2023/12/21 08:47:24;;;;;;;2.80;1.30;;;22.90;59.90;;;;;;5072847;28;20456;-87
2023/12/21 08:49:51;;;;;;;2.00;1.80;;;22.90;59.90;;;;;;5073395;28;20801;-82
2023/12/21 08:52:18;;;;;;;2.30;1.40;;;22.90;59.90;;;;;;5073060;28;20927;-82
2023/12/21 08:54:45;;;;;;;3.40;1.60;;;22.90;59.90;;;;;;5073075;28;20927;-82
2023/12/21 08:57:12;;;;;;;3.20;1.77;;;22.90;59.90;;;;;;5072845;28;20851;-82
2023/12/21 08:59:41;;;;;;;3.63;1.63;;;22.90;59.90;;;;;;5073039;28;20440;-83
2023/12/21 09:02:08;;;;;;;1.80;1.50;;;22.90;59.90;;;;;;5073392;28;20456;-86
2023/12/21 09:04:34;;;;;;;2.17;1.60;;;22.90;59.90;;;;;;5073813;28;20441;-95
2023/12/21 09:07:01;;;;;;;2.83;1.40;;;22.90;60.00;;;;;;5071710;28;20461;-88
2023/12/21 09:09:29;;;;;;;2.43;1.30;;;22.90;60.10;;;;;;5063848;28;20492;-84
2023/12/21 09:11:58;;;;;;;5.03;1.73;;;22.90;60.00;;;;;;5074153;28;20542;-90
2023/12/21 09:14:24;;;;;;;2.80;1.40;;;22.90;60.00;;;;;;5074655;28;20531;-82
2023/12/21 09:16:53;;;;;;;3.43;1.80;;;22.90;59.90;;;;;;5076977;28;20589;-82
2023/12/21 09:19:19;;;;;;;2.80;1.87;;;23.00;60.00;;;;;;5076944;28;20950;-82
2023/12/21 09:21:46;;;;;;;2.53;1.70;;;22.90;59.80;;;;;;5076802;28;20523;-83
2023/12/21 09:24:13;;;;;;;3.73;1.63;;;22.90;59.80;;;;;;5078252;28;20468;-85
2023/12/21 09:26:40;;;;;;;2.97;1.33;;;22.90;59.80;;;;;;5081637;28;20438;-85
2023/12/21 09:29:06;;;;;;;3.33;1.43;;;22.90;59.90;;;;;;5084369;28;20484;-88
2023/12/21 09:31:33;;;;;;;4.23;1.93;;;22.90;59.70;;;;;;5081559;28;20448;-87
2023/12/21 09:34:02;;;;;;;5.77;1.93;;;22.90;59.90;;;;;;5082793;28;20531;-86
2023/12/21 09:36:29;;;;;;;3.27;1.80;;;22.90;60.00;;;;;;5082979;28;20535;-87
2023/12/21 09:38:55;;;;;;;2.60;1.80;;;22.90;59.90;;;;;;5082053;28;20536;-94
2023/12/21 09:41:22;;;;;;;7.23;2.00;;;22.90;59.90;;;;;;5079729;28;20476;-86
2023/12/21 09:43:54;;;;;;;2.63;1.57;;;22.90;59.50;;;;;;5083080;28;20856;-86
2023/12/21 09:46:25;;;;;;;2.90;1.40;;;22.90;59.80;;;;;;5079182;28;20547;-86
2023/12/21 09:48:54;;;;;;;7.43;1.63;;;22.90;59.80;;;;;;5078345;28;20487;-86
2023/12/21 10:16:41;;;;;;;4.20;1.50;;;22.80;60.00;;;;;;5079766;23;20480;-87
2023/12/21 10:21:39;;;;;;;3.70;1.60;;;22.90;59.90;;;;;;5034206;28;20477;-84
2023/12/21 10:24:06;;;;;;;4.50;1.60;;;22.90;60.00;;;;;;5037342;28;20450;-84
2023/12/21 10:26:41;;;;;;;5.93;1.33;;;22.90;60.00;;;;;;5037793;28;20438;-83
2023/12/21 10:29:08;;;;;;;3.00;1.43;;;22.90;60.00;;;;;;5037208;28;20512;-84
2023/12/21 10:31:35;;;;;;;4.57;1.90;;;22.90;59.90;;;;;;5038485;28;20442;-84
2023/12/21 10:34:03;;;;;;;17.08;1.65;;;23.00;60.00;;;;;;5038295;28;20706;-84
2023/12/21 10:36:32;;;;;;;1.40;1.20;;;23.00;60.00;;;;;;5036440;28;20296;-84
2023/12/21 10:38:59;;;;;;;15.83;2.03;;;23.00;60.00;;;;;;5036237;28;20462;-89
2023/12/21 10:41:26;;;;;;;2.70;1.23;;;23.00;60.00;;;;;;5036101;28;20632;-84
2023/12/21 10:43:53;;;;;;;1.40;1.30;;;23.00;60.00;;;;;;5039018;28;20439;-93
2023/12/21 10:46:20;;;;;;;3.20;1.20;;;23.00;60.00;;;;;;5052252;28;20459;-84
2023/12/21 10:48:49;;;;;;;4.63;1.30;;;23.00;59.90;;;;;;5055949;28;20479;-84
2023/12/21 10:51:18;;;;;;;2.27;1.27;;;23.00;59.90;;;;;;5055970;28;20449;-84
2023/12/21 10:53:45;;;;;;;2.47;1.23;;;23.00;60.00;;;;;;5055606;28;20437;-84
2023/12/21 10:56:13;;;;;;;2.97;1.30;;;23.00;59.90;;;;;;5055759;28;20438;-83
2023/12/21 10:58:41;;;;;;;2.00;1.20;;;23.00;59.90;;;;;;5056460;28;20444;-85
2023/12/21 11:01:08;;;;;;;3.50;1.37;;;23.00;59.90;;;;;;5059288;28;20442;-87
2023/12/21 11:03:35;;;;;;;1.50;1.10;;;23.00;59.90;;;;;;5057339;28;20458;-84
2023/12/21 11:06:05;;;;;;;4.20;1.40;;;23.00;60.00;;;;;;5055489;28;21223;-95
2023/12/21 11:08:34;;;;;;;1.73;1.10;;;23.00;59.90;;;;;;5048742;28;20481;-84
2023/12/21 11:11:01;;;;;;;2.10;1.10;;;23.00;60.00;;;;;;5053316;28;20437;-84
2023/12/21 11:13:28;;;;;;;3.57;1.50;;;23.00;60.00;;;;;;5053074;28;20445;-85
2023/12/21 11:15:55;;;;;;;3.83;1.00;;;23.00;60.00;;;;;;5053985;28;20475;-85
2023/12/21 11:18:24;;;;;;;1.63;1.10;;;23.00;60.00;;;;;;5054232;28;20438;-85
2023/12/21 11:20:55;;;;;;;2.37;1.27;;;23.00;60.00;;;;;;5053924;28;20469;-85
2023/12/21 11:23:22;;;;;;;2.90;1.00;;;23.00;60.00;;;;;;5054034;28;20445;-85
2023/12/21 11:25:57;;;;;;;1.97;1.00;;;23.00;60.90;;;;;;5053608;28;20448;-85
2023/12/21 11:28:30;;;;;;;2.90;1.30;;;23.00;60.00;;;;;;5054443;28;20963;-85
2023/12/21 11:30:57;;;;;;;1.57;1.00;;;23.00;60.00;;;;;;5037438;28;20441;-85
2023/12/21 11:33:29;;;;;;;1.27;1.10;;;23.00;60.00;;;;;;5053328;28;20431;-85
2023/12/21 11:35:57;;;;;;;1.70;1.10;;;23.00;60.00;;;;;;5054355;28;20449;-85
2023/12/21 11:38:38;;;;;;;1.40;1.10;;;23.00;60.00;;;;;;5053399;28;20519;-93
2023/12/21 11:41:09;;;;;;;2.97;1.57;;;23.00;60.00;;;;;;5049007;28;20437;-86
2023/12/21 11:43:35;;;;;;;3.43;1.33;;;23.00;60.00;;;;;;5054148;28;21028;-82
2023/12/21 11:46:03;;;;;;;3.13;1.30;;;23.10;60.20;;;;;;5052494;28;20457;-82
2023/12/21 11:48:33;;;;;;;3.03;1.50;;;23.00;60.00;;;;;;5052235;28;20441;-88
2023/12/21 11:51:03;;;;;;;1.90;1.10;;;23.00;60.00;;;;;;5053086;28;20512;-83
2023/12/21 11:53:30;;;;;;;4.10;1.37;;;23.10;60.20;;;;;;5051782;28;20977;-82
2023/12/21 11:55:57;;;;;;;3.23;1.40;;;23.10;60.20;;;;;;5051974;28;20495;-85
2023/12/21 11:58:26;;;;;;;1.57;1.10;;;23.10;60.20;;;;;;5035342;28;20439;-88
2023/12/21 12:00:54;;;;;;;4.17;1.53;;;23.10;59.50;;;;;;5054208;28;20442;-84
2023/12/21 12:03:23;;;;;;;17.60;2.10;;;23.00;60.40;;;;;;5055557;28;20949;-84
2023/12/21 12:05:53;;;;;;;11.60;1.30;;;23.00;62.60;;;;;;5055282;28;20436;-85
2023/12/21 12:08:22;;;;;;;4.53;1.57;;;22.90;64.70;;;;;;5054236;28;20437;-86
2023/12/21 12:10:49;;;;;;;5.13;1.40;;;22.80;63.80;;;;;;5055308;28;20939;-93
2023/12/21 12:13:18;;;;;;;6.13;2.33;;;22.80;66.10;;;;;;5055545;28;20442;-85
2023/12/21 12:15:47;;;;;;;6.93;1.50;;;22.90;64.90;;;;;;5058752;28;20461;-85
2023/12/21 12:18:14;;;;;;;3.67;1.53;;;22.80;65.20;;;;;;5054053;28;20441;-84
2023/12/21 12:20:45;;;;;;;3.70;1.67;;;22.80;68.00;;;;;;5057950;28;20463;-85
2023/12/21 12:23:14;;;;;;;7.40;1.53;;;22.90;66.80;;;;;;5055423;28;20448;-84
2023/12/21 12:25:42;;;;;;;3.83;1.50;;;22.90;69.20;;;;;;5055258;28;20438;-85
2023/12/21 12:28:10;;;;;;;10.30;1.90;;;22.70;68.30;;;;;;5055261;28;20445;-85
2023/12/21 12:30:37;;;;;;;4.07;2.60;;;22.90;68.60;;;;;;5055318;28;20489;-85
2023/12/21 12:33:06;;;;;;;9.83;3.60;;;22.90;68.80;;;;;;5055260;28;20465;-85
2023/12/21 12:35:35;;;;;;;3.80;2.70;;;22.90;68.80;;;;;;5054765;28;20445;-85
2023/12/21 12:38:04;;;;;;;6.10;2.37;;;22.90;68.80;;;;;;5054863;28;20450;-86
2023/12/21 12:40:31;;;;;;;13.07;2.93;;;23.00;69.40;;;;;;5055455;28;20514;-85
2023/12/21 12:43:00;;;;;;;8.07;3.50;;;22.90;69.80;;;;;;5054843;28;20440;-85
2023/12/21 12:45:27;;;;;;;10.30;3.60;;;22.90;69.70;;;;;;5055343;28;20458;-85
2023/12/21 12:47:55;;;;;;;13.57;3.60;;;22.90;70.20;;;;;;5055137;28;20962;-84
2023/12/21 12:50:26;;;;;;;7.43;2.90;;;22.90;69.10;;;;;;5054716;28;20567;-84
2023/12/21 12:52:53;;;;;;;7.73;2.87;;;22.90;69.90;;;;;;5054926;28;20937;-84
2023/12/21 12:55:23;;;;;;;6.30;3.50;;;23.00;68.60;;;;;;5054499;28;20495;-85
2023/12/21 12:57:51;;;;;;;4.80;2.50;;;23.00;70.20;;;;;;5054602;28;20441;-84
2023/12/21 13:00:19;;;;;;;7.33;3.10;;;23.00;67.30;;;;;;5054458;28;20529;-85
2023/12/21 13:02:46;;;;;;;4.30;2.23;;;23.00;69.20;;;;;;5054215;28;20508;-88
2023/12/21 13:05:15;;;;;;;4.40;2.40;;;23.00;70.40;;;;;;5054469;28;20463;-85
2023/12/21 13:07:43;;;;;;;6.27;2.37;;;23.00;70.40;;;;;;5054685;28;20441;-85
2023/12/21 13:10:11;;;;;;;6.50;2.53;;;23.10;68.00;;;;;;5053295;28;20551;-85
2023/12/21 13:12:38;;;;;;;6.83;2.80;;;23.00;69.20;;;;;;5054742;28;20445;-85
2023/12/21 13:15:07;;;;;;;6.27;3.10;;;23.00;68.60;;;;;;5054773;28;20461;-85